createdAt,value
2023-03-26T00:01:39.859Z,8.88
2023-03-26T00:04:10.003Z,8.87
2023-03-26T00:06:39.245Z,8.86
2023-03-26T00:09:09.499Z,8.83
2023-03-26T00:11:36.843Z,8.82
2023-03-26T00:14:04.905Z,8.79
2023-03-26T00:16:31.952Z,8.79
2023-03-26T00:19:01.416Z,8.79
2023-03-26T00:21:30.328Z,8.79
2023-03-26T00:24:26.294Z,8.78
2023-03-26T00:27:02.287Z,8.78
2023-03-26T00:29:32.765Z,8.77
2023-03-26T00:31:59.772Z,8.76
2023-03-26T00:34:26.980Z,8.78
2023-03-26T00:36:54.337Z,8.78
2023-03-26T00:39:23.483Z,8.78
2023-03-26T00:41:53.804Z,8.81
2023-03-26T00:44:21.105Z,8.81
2023-03-26T00:46:48.928Z,8.81
2023-03-26T00:49:15.891Z,8.81
2023-03-26T00:51:42.965Z,8.79
2023-03-26T00:54:11.348Z,8.80
2023-03-26T00:56:38.675Z,8.79
2023-03-26T00:59:05.805Z,8.79
2023-03-26T01:01:33.158Z,8.77
2023-03-26T01:04:49.966Z,8.74
2023-03-26T01:07:21.322Z,8.73
2023-03-26T01:09:51.263Z,8.73
2023-03-26T01:12:21.800Z,8.72
2023-03-26T01:14:56.553Z,8.72
2023-03-26T01:17:34.562Z,8.69
2023-03-26T01:20:22.673Z,8.66
2023-03-26T01:22:55.861Z,8.65
2023-03-26T01:25:28.599Z,8.63
2023-03-26T01:27:56.164Z,8.59
2023-03-26T01:30:56.915Z,8.55
2023-03-26T01:33:36.864Z,8.50
2023-03-26T01:36:32.736Z,8.46
2023-03-26T01:39:20.958Z,8.42
2023-03-26T01:41:57.997Z,8.39
2023-03-26T01:44:39.072Z,8.37
2023-03-26T01:47:09.587Z,8.36
2023-03-26T01:49:36.859Z,8.34
2023-03-26T01:52:12.595Z,8.31
2023-03-26T01:54:40.911Z,8.29
2023-03-26T01:57:33.431Z,8.27
2023-03-26T02:00:17.646Z,8.28
2023-03-26T02:03:25.731Z,8.27
2023-03-26T02:06:16.011Z,8.24
2023-03-26T02:09:00.360Z,8.22
2023-03-26T02:11:35.296Z,8.20
2023-03-26T02:14:05.651Z,8.18
2023-03-26T02:16:32.866Z,8.13
2023-03-26T02:18:59.951Z,8.08
2023-03-26T02:21:27.966Z,8.03
2023-03-26T02:24:06.059Z,7.98
2023-03-26T02:26:37.214Z,7.94
2023-03-26T02:29:07.677Z,7.88
2023-03-26T02:31:36.350Z,7.82
2023-03-26T02:34:06.700Z,7.77
2023-03-26T02:36:36.022Z,7.70
2023-03-26T02:39:04.788Z,7.64
2023-03-26T02:41:34.967Z,7.59
2023-03-26T02:44:08.039Z,7.53
2023-03-26T02:46:53.816Z,7.47
2023-03-26T02:49:59.383Z,7.38
2023-03-26T02:52:49.407Z,7.30
2023-03-26T02:55:16.506Z,7.23
2023-03-26T02:57:45.132Z,7.16
2023-03-26T03:00:21.444Z,7.12
2023-03-26T03:03:04.030Z,7.04
2023-03-26T03:05:32.538Z,7.00
2023-03-26T03:08:23.649Z,6.95
2023-03-26T03:11:26.038Z,6.89
2023-03-26T03:13:53.922Z,6.84
2023-03-26T03:16:27.237Z,6.78
2023-03-26T03:18:57.571Z,6.74
2023-03-26T03:21:28.290Z,6.71
2023-03-26T03:24:00.002Z,6.68
2023-03-26T03:26:41.803Z,6.64
2023-03-26T03:29:24.791Z,6.61
2023-03-26T03:31:52.205Z,6.59
2023-03-26T03:34:42.289Z,6.57
2023-03-26T03:37:09.407Z,6.55
2023-03-26T03:39:44.185Z,6.53
2023-03-26T03:42:12.461Z,6.48
2023-03-26T03:44:39.749Z,6.44
2023-03-26T03:47:23.116Z,6.39
2023-03-26T03:49:50.706Z,6.34
2023-03-26T03:52:18.066Z,6.30
2023-03-26T03:54:46.003Z,6.28
2023-03-26T03:57:34.217Z,6.25
2023-03-26T04:00:07.620Z,6.22
2023-03-26T04:02:42.549Z,6.17
2023-03-26T04:05:11.446Z,6.12
2023-03-26T04:07:43.536Z,6.08
2023-03-26T04:10:46.799Z,6.01
2023-03-26T04:13:17.602Z,5.97
2023-03-26T04:16:08.867Z,5.90
2023-03-26T04:18:37.088Z,5.85
2023-03-26T04:21:12.016Z,5.82
2023-03-26T04:23:47.604Z,5.80
2023-03-26T04:26:49.538Z,5.79
2023-03-26T04:29:27.349Z,5.78
2023-03-26T04:32:08.422Z,5.76
2023-03-26T04:34:35.898Z,5.72
2023-03-26T04:37:26.346Z,5.70
2023-03-26T04:40:20.047Z,5.69
2023-03-26T04:43:21.766Z,5.74
2023-03-26T04:46:11.008Z,5.84
2023-03-26T04:48:45.176Z,5.92
2023-03-26T04:51:17.955Z,5.98
2023-03-26T04:53:57.845Z,6.06
2023-03-26T04:56:43.008Z,6.16
2023-03-26T04:59:36.552Z,6.29
2023-03-26T05:02:09.149Z,6.41
2023-03-26T05:04:50.618Z,6.56
2023-03-26T05:07:23.613Z,6.69
2023-03-26T05:09:53.628Z,6.83
2023-03-26T05:12:34.824Z,7.01
2023-03-26T05:15:10.963Z,7.18
2023-03-26T05:17:58.565Z,7.37
2023-03-26T05:20:30.663Z,7.53
2023-03-26T05:22:58.046Z,7.72
2023-03-26T05:25:39.401Z,7.96
2023-03-26T05:28:13.260Z,8.16
2023-03-26T05:31:01.309Z,8.36
2023-03-26T05:33:30.866Z,8.55
2023-03-26T05:36:30.456Z,8.73
2023-03-26T05:39:26.238Z,9.02
2023-03-26T05:42:16.245Z,9.25
2023-03-26T05:44:58.252Z,9.47
2023-03-26T05:47:27.557Z,9.67
2023-03-26T05:49:54.997Z,9.90
2023-03-26T05:52:22.261Z,10.08
2023-03-26T05:55:14.123Z,10.21
2023-03-26T05:58:03.251Z,10.25
2023-03-26T06:01:19.376Z,10.28
2023-03-26T06:04:13.209Z,10.44
2023-03-26T06:06:44.344Z,10.60
2023-03-26T06:09:12.868Z,10.71
2023-03-26T06:11:41.290Z,10.92
2023-03-26T06:14:08.666Z,11.17
2023-03-26T06:16:38.984Z,11.38
2023-03-26T06:19:38.300Z,11.57
2023-03-26T06:22:13.306Z,11.68
2023-03-26T06:25:18.478Z,11.83
2023-03-26T06:27:54.386Z,12.05
2023-03-26T06:30:40.349Z,12.23
2023-03-26T06:33:24.968Z,12.48
2023-03-26T06:35:52.630Z,12.71
2023-03-26T06:38:19.927Z,12.87
2023-03-26T06:40:47.186Z,13.08
2023-03-26T06:43:36.420Z,13.24
2023-03-26T06:46:16.481Z,13.46
2023-03-26T06:49:02.432Z,13.55
2023-03-26T06:52:24.363Z,13.62
2023-03-26T06:55:06.087Z,13.65
2023-03-26T06:58:03.761Z,13.82
2023-03-26T07:00:54.052Z,13.97
2023-03-26T07:03:40.012Z,14.10
2023-03-26T07:06:39.167Z,14.36
2023-03-26T07:09:25.792Z,14.62
2023-03-26T07:12:28.129Z,14.89
2023-03-26T07:15:17.115Z,15.16
2023-03-26T07:18:06.474Z,15.39
2023-03-26T07:20:36.127Z,15.41
2023-03-26T07:23:04.463Z,15.25
2023-03-26T07:26:22.633Z,14.96
2023-03-26T07:29:35.201Z,15.05
2023-03-26T07:32:49.473Z,15.26
2023-03-26T07:35:38.191Z,15.34
2023-03-26T07:38:50.396Z,15.35
2023-03-26T07:41:40.679Z,15.53
2023-03-26T07:44:41.036Z,15.59
2023-03-26T07:47:42.058Z,15.73
2023-03-26T07:50:38.866Z,15.96
2023-03-26T07:53:28.399Z,16.19
2023-03-26T07:56:18.456Z,16.23
2023-03-26T07:59:16.266Z,16.21
2023-03-26T08:02:17.562Z,16.21
2023-03-26T08:05:09.833Z,16.24
2023-03-26T08:08:14.463Z,16.43
2023-03-26T08:11:29.484Z,16.68
2023-03-26T08:14:13.853Z,16.82
2023-03-26T08:17:01.889Z,16.82
2023-03-26T08:19:40.284Z,16.90
2023-03-26T08:22:25.743Z,16.99
2023-03-26T08:24:56.701Z,17.09
2023-03-26T08:27:41.047Z,17.18
2023-03-26T08:30:07.992Z,17.31
2023-03-26T08:32:35.403Z,17.23
2023-03-26T08:35:03.883Z,17.19
2023-03-26T08:37:31.124Z,17.30
2023-03-26T08:39:58.162Z,17.44
2023-03-26T08:43:00.905Z,17.66
2023-03-26T08:45:44.038Z,17.88
2023-03-26T08:48:29.359Z,18.09
2023-03-26T08:51:14.793Z,18.12
2023-03-26T08:54:02.870Z,18.05
2023-03-26T08:56:53.300Z,18.12
2023-03-26T08:59:48.755Z,18.22
2023-03-26T09:02:33.500Z,18.25
2023-03-26T09:05:43.375Z,18.30
2023-03-26T09:08:32.405Z,18.33
2023-03-26T09:11:45.366Z,18.28
2023-03-26T09:14:30.144Z,18.33
2023-03-26T09:17:24.221Z,18.16
2023-03-26T09:20:19.479Z,18.03
2023-03-26T09:23:11.977Z,17.95
2023-03-26T09:26:03.574Z,17.99
2023-03-26T09:29:10.664Z,17.98
2023-03-26T09:32:05.031Z,18.03
2023-03-26T09:34:57.893Z,18.06
2023-03-26T09:37:57.447Z,18.10
2023-03-26T09:40:46.063Z,18.17
2023-03-26T09:43:36.174Z,18.31
2023-03-26T09:46:09.959Z,18.37
2023-03-26T09:49:22.359Z,18.40
2023-03-26T09:52:08.368Z,18.54
2023-03-26T09:54:48.106Z,18.74
2023-03-26T09:57:57.788Z,18.77
2023-03-26T10:00:46.696Z,18.70
2023-03-26T10:03:38.270Z,18.68
2023-03-26T10:06:34.601Z,18.58
2023-03-26T10:09:20.527Z,18.61
2023-03-26T10:12:23.703Z,18.55
2023-03-26T10:15:16.601Z,18.44
2023-03-26T10:18:00.280Z,18.49
2023-03-26T10:20:56.954Z,18.64
2023-03-26T10:23:47.724Z,18.96
2023-03-26T10:27:09.006Z,19.20
2023-03-26T10:29:51.489Z,19.41
2023-03-26T10:32:58.730Z,19.38
2023-03-26T10:35:51.949Z,19.50
2023-03-26T10:38:40.396Z,19.81
2023-03-26T10:41:18.004Z,20.03
2023-03-26T10:44:11.262Z,20.18
2023-03-26T10:46:52.455Z,20.12
2023-03-26T10:49:49.574Z,20.13
2023-03-26T10:52:49.891Z,20.32
2023-03-26T10:55:31.390Z,20.25
2023-03-26T10:58:24.529Z,20.13
2023-03-26T11:01:06.285Z,20.13
2023-03-26T11:03:51.591Z,20.15
2023-03-26T11:06:42.566Z,20.09
2023-03-26T11:09:37.394Z,20.04
2023-03-26T11:12:26.339Z,20.07
2023-03-26T11:15:15.160Z,19.99
2023-03-26T11:18:26.862Z,19.73
2023-03-26T11:21:19.834Z,19.46
2023-03-26T11:24:05.131Z,19.63
2023-03-26T11:26:56.860Z,19.88
2023-03-26T11:29:56.952Z,20.02
2023-03-26T11:32:34.173Z,20.18
2023-03-26T11:35:18.343Z,20.22
2023-03-26T11:38:32.461Z,20.18
2023-03-26T11:41:03.468Z,20.13
2023-03-26T11:44:00.362Z,20.11
2023-03-26T11:46:33.892Z,19.90
2023-03-26T11:49:15.531Z,19.78
2023-03-26T11:51:46.876Z,19.57
2023-03-26T11:54:15.914Z,19.40
2023-03-26T11:57:05.914Z,19.29
2023-03-26T11:59:57.241Z,19.12
2023-03-26T12:02:37.200Z,19.15
2023-03-26T12:05:26.881Z,19.21
2023-03-26T12:07:59.796Z,19.16
2023-03-26T12:10:40.067Z,18.98
2023-03-26T12:13:43.046Z,19.05
2023-03-26T12:16:38.349Z,19.18
2023-03-26T12:19:21.941Z,19.29
2023-03-26T12:21:51.626Z,19.48
2023-03-26T12:25:09.129Z,19.71
2023-03-26T12:28:02.848Z,19.88
2023-03-26T12:30:44.743Z,19.87
2023-03-26T12:33:39.016Z,19.75
2023-03-26T12:36:19.446Z,19.61
2023-03-26T12:38:46.487Z,19.65
2023-03-26T12:43:19.840Z,19.71
2023-03-26T12:44:54.131Z,19.51
2023-03-26T12:48:00.460Z,19.17
2023-03-26T12:50:15.884Z,18.87
2023-03-26T12:53:05.647Z,18.76
2023-03-26T12:55:36.241Z,18.81
2023-03-26T12:58:23.647Z,18.74
2023-03-26T13:01:22.767Z,18.60
2023-03-26T13:04:11.149Z,18.65
2023-03-26T13:07:00.681Z,18.56
2023-03-26T13:09:44.405Z,18.42
2023-03-26T13:12:17.568Z,18.39
2023-03-26T13:14:55.817Z,18.32
2023-03-26T13:17:31.914Z,18.20
2023-03-26T13:20:01.962Z,18.29
2023-03-26T13:23:18.206Z,18.41
2023-03-26T13:26:24.296Z,18.52
2023-03-26T13:29:20.075Z,18.68
2023-03-26T13:32:23.172Z,18.80
2023-03-26T13:35:18.501Z,18.72
2023-03-26T13:37:54.558Z,18.88
2023-03-26T13:40:35.841Z,18.98
2023-03-26T13:43:20.640Z,19.08
2023-03-26T13:46:23.619Z,19.08
2023-03-26T13:48:57.796Z,19.09
2023-03-26T13:51:27.027Z,19.15
2023-03-26T13:54:04.791Z,19.16
2023-03-26T13:56:47.280Z,18.92
2023-03-26T13:59:14.085Z,18.90
2023-03-26T14:02:05.709Z,18.87
2023-03-26T14:04:47.078Z,18.90
2023-03-26T14:07:20.441Z,18.91
2023-03-26T14:09:57.334Z,18.90
2023-03-26T14:12:51.774Z,19.04
2023-03-26T14:15:22.634Z,19.17
2023-03-26T14:17:52.914Z,19.21
2023-03-26T14:20:58.883Z,19.28
2023-03-26T14:23:56.764Z,19.29
2023-03-26T14:26:48.611Z,19.31
2023-03-26T14:29:29.692Z,19.33
2023-03-26T14:32:24.529Z,19.36
2023-03-26T14:35:04.343Z,19.44
2023-03-26T14:38:14.392Z,19.49
2023-03-26T14:41:10.006Z,19.35
2023-03-26T14:44:10.583Z,19.17
2023-03-26T14:46:49.772Z,18.97
2023-03-26T14:49:22.863Z,18.81
2023-03-26T14:52:20.102Z,18.58
2023-03-26T14:54:52.276Z,18.39
2023-03-26T14:57:46.902Z,18.09
2023-03-26T15:01:03.899Z,17.71
2023-03-26T15:04:05.692Z,17.36
2023-03-26T15:06:50.807Z,17.13
2023-03-26T15:09:45.755Z,16.98
2023-03-26T15:12:15.779Z,16.78
2023-03-26T15:15:16.226Z,16.59
2023-03-26T15:18:05.991Z,16.34
2023-03-26T15:20:55.788Z,16.05
2023-03-26T15:24:19.602Z,15.92
2023-03-26T15:27:11.667Z,15.87
2023-03-26T15:30:20.373Z,15.89
2023-03-26T15:33:19.611Z,15.97
2023-03-26T15:36:14.359Z,16.07
2023-03-26T15:38:42.120Z,16.16
2023-03-26T15:41:45.940Z,16.22
2023-03-26T15:48:38.161Z,16.23
2023-03-26T15:51:21.718Z,16.12
2023-03-26T15:54:07.906Z,15.97
2023-03-26T15:56:48.605Z,15.79
2023-03-26T15:59:41.386Z,15.57
2023-03-26T16:02:38.521Z,15.30
2023-03-26T16:05:36.731Z,15.10
2023-03-26T16:08:38.716Z,14.91
2023-03-26T16:11:12.951Z,14.71
2023-03-26T16:14:02.512Z,14.52
2023-03-26T16:17:38.080Z,14.31
2023-03-26T16:22:03.529Z,14.09
2023-03-26T16:28:08.994Z,13.59
2023-03-26T16:30:45.789Z,13.39
2023-03-26T16:52:36.930Z,12.13
2023-03-26T17:19:30.052Z,11.03
2023-03-26T18:02:00.724Z,9.37
2023-03-26T18:04:39.176Z,9.27
2023-03-26T18:22:11.706Z,8.70
2023-03-26T18:26:01.920Z,8.66
2023-03-26T18:28:34.505Z,8.60
2023-03-26T18:32:30.686Z,8.56
2023-03-26T19:13:19.866Z,7.39
2023-03-26T19:16:43.123Z,7.25
2023-03-26T20:22:41.024Z,5.37
2023-03-26T20:26:27.439Z,5.26
2023-03-26T20:38:39.120Z,5.07
2023-03-26T21:04:47.318Z,4.62
2023-03-26T21:07:23.099Z,4.57
2023-03-26T21:13:05.245Z,4.50
2023-03-26T21:15:33.284Z,4.46
2023-03-26T21:18:00.626Z,4.40
2023-03-26T21:20:28.286Z,4.35
2023-03-26T21:23:15.801Z,4.29
2023-03-26T21:26:01.166Z,4.23
2023-03-26T21:28:41.992Z,4.18
2023-03-26T21:31:17.948Z,4.12
2023-03-26T21:33:46.077Z,4.07
2023-03-26T21:36:14.671Z,4.02
2023-03-26T21:38:43.115Z,3.97
2023-03-26T21:42:04.889Z,3.91
2023-03-26T21:44:36.501Z,3.85
2023-03-26T21:47:03.959Z,3.79
2023-03-26T21:49:34.634Z,3.75
2023-03-26T21:52:02.312Z,3.70
2023-03-26T21:54:31.650Z,3.67
2023-03-26T21:58:00.853Z,3.61
2023-03-26T22:01:02.320Z,3.55
2023-03-26T22:03:37.328Z,3.49
2023-03-26T22:06:17.126Z,3.44
2023-03-26T22:08:44.405Z,3.39
2023-03-26T22:11:12.510Z,3.36
2023-03-26T22:13:39.674Z,3.31
2023-03-26T22:16:08.909Z,3.28
2023-03-26T22:18:36.340Z,3.23
2023-03-26T22:21:04.064Z,3.18
2023-03-26T22:23:35.536Z,3.13
2023-03-26T22:26:04.600Z,3.07
2023-03-26T22:28:31.720Z,3.03
2023-03-26T22:30:59.156Z,2.99
2023-03-26T22:33:26.492Z,2.95
2023-03-26T22:35:55.595Z,2.92
2023-03-26T22:38:23.380Z,2.89
2023-03-26T22:40:56.595Z,2.85
2023-03-26T22:43:23.980Z,2.80
2023-03-26T22:45:53.071Z,2.76
2023-03-26T22:48:22.898Z,2.73
2023-03-26T22:51:07.568Z,2.71
2023-03-26T22:53:35.563Z,2.69
2023-03-26T22:56:03.606Z,2.67
2023-03-26T22:58:32.450Z,2.65
2023-03-26T23:01:17.335Z,2.66
2023-03-26T23:03:46.113Z,2.68
2023-03-26T23:06:13.663Z,2.67
2023-03-26T23:08:41.513Z,2.65
2023-03-26T23:11:16.416Z,2.64
2023-03-26T23:13:52.662Z,2.62
2023-03-26T23:16:20.943Z,2.59
2023-03-26T23:18:48.035Z,2.56
2023-03-26T23:21:17.702Z,2.52
2023-03-26T23:23:46.419Z,2.51
2023-03-26T23:26:14.404Z,2.52
2023-03-26T23:28:47.046Z,2.50
2023-03-26T23:31:17.085Z,2.47
2023-03-26T23:33:46.959Z,2.45
2023-03-26T23:36:17.348Z,2.41
2023-03-26T23:38:48.664Z,2.38
2023-03-26T23:41:20.776Z,2.36
2023-03-26T23:43:58.766Z,2.34
2023-03-26T23:46:34.107Z,2.32
2023-03-26T23:49:04.432Z,2.31
2023-03-26T23:51:32.487Z,2.29
2023-03-26T23:54:00.883Z,2.28
2023-03-26T23:56:29.212Z,2.27
2023-03-26T23:58:56.187Z,2.26
